Montezuma, Georgia
Current Conditions -  °F | °C
As of 6:15 AM on Sunday 23 Nov 2014 (Local Time) from KACJ Reporting Station
Moderate Rain Moderate Rain  
Wind Chill: 59°   Ceiling: 500
Heat Index: 59°   Visibility: 5mi
Dew Point: 59°   Wind: 9mph
Humidity: 100%   Direction: 100°E
Pressure: 30"   Gusts: NA
Location:  32.31°N, 84.03°W
Report Text: KACJ 231115Z AUTO 10008KT 5SM RA BKN005 OVC015 15/15 A3000 RMK AO2
Loading
Personal Weather Stations






























Interactive Weather Map New forecast layout! Learn more

10-Day Weather Forecast

Advertisements
Track Severe Weather on mobile